createdAt,value
2019-03-06T00:00:41.585Z,84.50
2019-03-06T00:05:44.821Z,84.60
2019-03-06T00:10:48.048Z,85.10
2019-03-06T00:15:52.189Z,85.20
2019-03-06T00:20:55.625Z,85.20
2019-03-06T00:25:59.298Z,85.20
2019-03-06T00:31:03.755Z,85.70
2019-03-06T00:36:13.548Z,85.90
2019-03-06T00:41:22.140Z,86.00
2019-03-06T00:46:25.500Z,84.90
2019-03-06T00:51:30.443Z,85.50
2019-03-06T00:56:34.824Z,84.80
2019-03-06T01:01:38.202Z,85.30
2019-03-06T01:06:41.631Z,85.30
2019-03-06T01:11:45.455Z,85.50
2019-03-06T01:16:49.562Z,85.50
2019-03-06T01:21:54.039Z,85.70
2019-03-06T01:26:57.800Z,85.20
2019-03-06T01:32:01.848Z,85.30
2019-03-06T01:37:20.736Z,85.30
2019-03-06T01:42:30.035Z,85.20
2019-03-06T01:47:33.395Z,86.30
2019-03-06T01:52:36.962Z,85.20
2019-03-06T01:57:40.606Z,85.00
2019-03-06T02:02:44.237Z,84.80
2019-03-06T02:07:48.080Z,84.90
2019-03-06T02:12:51.796Z,84.70
2019-03-06T02:17:55.385Z,85.00
2019-03-06T02:22:58.741Z,84.80
2019-03-06T02:28:03.165Z,84.80
2019-03-06T02:33:09.791Z,84.70
2019-03-06T02:38:13.488Z,84.80
2019-03-06T02:43:17.596Z,84.90
2019-03-06T02:48:21.608Z,85.00
2019-03-06T02:53:25.203Z,85.80
2019-03-06T02:58:38.525Z,85.40
2019-03-06T03:04:04.464Z,85.60
2019-03-06T03:09:16.423Z,85.60
2019-03-06T03:14:19.673Z,85.80
2019-03-06T03:19:23.979Z,86.20
2019-03-06T03:24:30.097Z,86.20
2019-03-06T03:29:33.558Z,86.00
2019-03-06T03:34:37.411Z,86.30
2019-03-06T03:39:41.806Z,86.30
2019-03-06T03:44:45.100Z,86.30
2019-03-06T03:49:48.910Z,86.40
2019-03-06T03:55:12.786Z,86.40
2019-03-06T04:00:16.552Z,87.80
2019-03-06T04:05:20.913Z,86.40
2019-03-06T04:10:24.248Z,86.50
2019-03-06T04:15:28.403Z,86.50
2019-03-06T04:20:33.146Z,86.50
2019-03-06T04:25:36.495Z,86.30
2019-03-06T04:30:39.834Z,86.30
2019-03-06T04:35:43.164Z,86.00
2019-03-06T04:40:46.430Z,85.90
2019-03-06T04:45:49.767Z,86.20
2019-03-06T04:50:53.314Z,86.10
2019-03-06T04:55:56.739Z,86.10
2019-03-06T05:01:00.078Z,86.40
2019-03-06T05:06:04.007Z,86.30
2019-03-06T05:11:07.493Z,86.50
2019-03-06T05:16:11.140Z,86.80
2019-03-06T05:21:16.995Z,87.40
2019-03-06T05:26:20.764Z,87.40
2019-03-06T05:31:25.303Z,87.20
2019-03-06T05:37:23.922Z,87.10
2019-03-06T05:42:27.395Z,87.00
2019-03-06T05:47:30.742Z,87.40
2019-03-06T05:52:34.634Z,87.30
2019-03-06T05:57:38.981Z,87.00
2019-03-06T06:02:42.739Z,87.70
2019-03-06T06:07:46.185Z,86.30
2019-03-06T06:12:50.603Z,86.50
2019-03-06T06:17:53.953Z,86.40
2019-03-06T06:23:26.121Z,86.80
2019-03-06T06:28:29.370Z,86.20
2019-03-06T06:33:32.779Z,86.00
2019-03-06T06:38:37.493Z,85.60
2019-03-06T06:43:41.225Z,85.30
2019-03-06T06:48:45.090Z,84.70
2019-03-06T06:54:08.901Z,84.20
2019-03-06T06:59:45.618Z,84.40
2019-03-06T07:05:17.336Z,84.10
2019-03-06T07:10:58.129Z,83.90
2019-03-06T07:16:19.807Z,82.70
2019-03-06T07:21:32.215Z,81.70
2019-03-06T07:26:58.399Z,80.40
2019-03-06T07:32:21.550Z,78.70
2019-03-06T07:37:42.118Z,78.10
2019-03-06T07:42:56.459Z,78.70
2019-03-06T07:48:17.888Z,79.10
2019-03-06T07:54:12.947Z,78.50
2019-03-06T07:59:16.610Z,77.90
2019-03-06T08:04:20.708Z,77.20
2019-03-06T08:09:25.518Z,76.40
2019-03-06T08:14:48.215Z,75.70
2019-03-06T08:20:30.135Z,74.50
2019-03-06T08:25:43.577Z,74.60
2019-03-06T08:30:51.073Z,74.30
2019-03-06T08:35:55.548Z,74.50
2019-03-06T08:41:04.242Z,73.50
2019-03-06T08:46:33.181Z,72.20
2019-03-06T08:51:43.054Z,71.30
2019-03-06T08:57:08.961Z,72.70
2019-03-06T09:02:38.788Z,73.50
2019-03-06T09:08:04.515Z,73.00
2019-03-06T09:13:26.362Z,71.50
2019-03-06T09:18:56.294Z,69.40
2019-03-06T09:24:28.237Z,69.00
2019-03-06T09:30:05.046Z,68.80
2019-03-06T09:35:46.356Z,69.10
2019-03-06T09:41:09.593Z,68.30
2019-03-06T09:46:29.003Z,67.50
2019-03-06T09:51:51.848Z,67.00
2019-03-06T09:57:14.225Z,65.90
2019-03-06T10:02:43.407Z,65.70
2019-03-06T10:07:52.241Z,65.20
2019-03-06T10:13:09.505Z,63.90
2019-03-06T10:18:37.816Z,64.90
2019-03-06T10:23:41.442Z,62.30
2019-03-06T10:28:44.856Z,61.40
2019-03-06T10:33:48.927Z,60.10
2019-03-06T10:38:52.419Z,60.30
2019-03-06T10:43:56.008Z,59.50
2019-03-06T10:48:59.560Z,58.00
2019-03-06T10:54:03.315Z,58.40
2019-03-06T10:59:07.808Z,57.40
2019-03-06T11:04:29.851Z,57.10
2019-03-06T11:09:33.470Z,57.60
2019-03-06T11:14:39.893Z,58.50
2019-03-06T11:19:43.337Z,58.60
2019-03-06T11:24:46.860Z,57.70
2019-03-06T11:29:50.184Z,56.50
2019-03-06T11:34:54.173Z,55.60
2019-03-06T11:39:58.084Z,56.30
2019-03-06T11:45:02.303Z,55.00
2019-03-06T11:50:07.265Z,54.10
2019-03-06T11:55:11.515Z,54.50
2019-03-06T12:00:29.292Z,52.80
2019-03-06T12:05:34.657Z,49.80
2019-03-06T12:10:39.197Z,47.70
2019-03-06T12:15:45.992Z,47.00
2019-03-06T12:20:50.069Z,48.40
2019-03-06T12:25:55.553Z,48.90
2019-03-06T12:30:59.837Z,46.30
2019-03-06T12:36:03.358Z,47.80
2019-03-06T12:41:06.808Z,47.00
2019-03-06T12:46:24.532Z,50.40
2019-03-06T12:51:28.840Z,46.00
2019-03-06T12:56:46.046Z,45.30
2019-03-06T13:01:50.145Z,46.80
2019-03-06T13:06:53.714Z,46.30
2019-03-06T13:11:58.234Z,46.70
2019-03-06T13:17:01.766Z,45.60
2019-03-06T13:22:11.118Z,41.90
2019-03-06T13:27:11.598Z,44.30
2019-03-06T13:32:15.397Z,47.70
2019-03-06T13:37:18.943Z,43.30
2019-03-06T13:42:23.028Z,41.30
2019-03-06T13:47:26.663Z,41.60
2019-03-06T13:52:30.885Z,40.70
2019-03-06T13:57:34.711Z,40.50
2019-03-06T14:02:38.151Z,42.10
2019-03-06T14:12:46.112Z,41.40
2019-03-06T14:17:50.031Z,41.70
2019-03-06T14:22:53.335Z,41.70
2019-03-06T14:27:58.213Z,42.00
2019-03-06T14:33:01.526Z,43.60
2019-03-06T14:38:06.918Z,44.40
2019-03-06T14:43:10.701Z,43.90
2019-03-06T14:48:14.188Z,44.30
2019-03-06T14:53:18.305Z,43.80
2019-03-06T14:58:22.113Z,43.30
2019-03-06T15:03:25.452Z,43.10
2019-03-06T15:08:29.708Z,43.10
2019-03-06T15:13:33.020Z,43.00
2019-03-06T15:18:36.328Z,43.20
2019-03-06T15:23:39.850Z,43.60
2019-03-06T15:28:43.216Z,42.90
2019-03-06T15:33:46.816Z,43.10
2019-03-06T15:38:52.091Z,42.10
2019-03-06T15:43:55.755Z,42.50
2019-03-06T15:48:59.102Z,36.70
2019-03-06T15:54:03.494Z,31.50
2019-03-06T15:59:14.617Z,29.30
2019-03-06T16:04:13.314Z,29.10
2019-03-06T16:09:16.932Z,30.00
2019-03-06T16:14:21.520Z,36.40
2019-03-06T16:19:24.993Z,40.00
2019-03-06T16:24:29.212Z,40.50
2019-03-06T16:29:33.577Z,45.30
2019-03-06T16:34:37.096Z,45.60
2019-03-06T16:39:41.017Z,48.30
2019-03-06T16:44:44.644Z,48.70
2019-03-06T16:49:49.870Z,49.60
2019-03-06T16:54:54.483Z,50.30
2019-03-06T16:59:57.975Z,51.70
2019-03-06T17:05:04.418Z,52.00
2019-03-06T17:10:08.081Z,53.00
2019-03-06T17:15:12.723Z,53.40
2019-03-06T17:20:19.160Z,53.80
2019-03-06T17:25:23.290Z,54.10
2019-03-06T17:30:27.380Z,53.80
2019-03-06T17:35:31.852Z,53.70
2019-03-06T17:40:35.989Z,54.00
2019-03-06T17:45:39.609Z,54.00
2019-03-06T17:50:43.067Z,54.20
2019-03-06T17:55:47.082Z,54.40
2019-03-06T18:00:53.593Z,55.30
2019-03-06T18:05:58.545Z,55.70
2019-03-06T18:11:02.228Z,55.60
2019-03-06T18:16:05.932Z,55.50
2019-03-06T18:21:09.404Z,55.70
2019-03-06T18:26:12.846Z,55.70
2019-03-06T18:31:17.820Z,55.90
2019-03-06T18:36:21.987Z,55.70
2019-03-06T18:41:25.349Z,55.80
2019-03-06T18:46:28.916Z,55.60
2019-03-06T18:51:32.288Z,55.50
2019-03-06T18:56:35.952Z,55.80
2019-03-06T19:01:40.699Z,56.40
2019-03-06T19:06:44.442Z,57.20
2019-03-06T19:11:48.540Z,56.90
2019-03-06T19:16:52.353Z,57.10
2019-03-06T19:21:55.822Z,57.30
2019-03-06T19:27:00.307Z,57.40
2019-03-06T19:32:03.831Z,57.60
2019-03-06T19:37:07.599Z,57.60
2019-03-06T19:42:11.112Z,57.70
2019-03-06T19:47:14.449Z,57.70
2019-03-06T19:52:18.570Z,57.80
2019-03-06T19:57:23.232Z,58.30
2019-03-06T20:02:28.511Z,58.50
2019-03-06T20:07:31.875Z,58.80
2019-03-06T20:12:35.171Z,59.10
2019-03-06T20:17:38.569Z,59.20
2019-03-06T20:22:42.309Z,59.30
2019-03-06T20:27:45.963Z,59.30
2019-03-06T20:32:49.302Z,59.30
2019-03-06T20:37:52.900Z,59.20
2019-03-06T20:42:56.253Z,59.20
2019-03-06T20:48:03.310Z,59.50
2019-03-06T20:53:07.415Z,59.60
2019-03-06T20:58:10.690Z,59.50
2019-03-06T21:03:14.653Z,59.50
2019-03-06T21:08:18.201Z,59.00
2019-03-06T21:13:21.927Z,58.20
2019-03-06T21:18:27.251Z,64.20
2019-03-06T21:43:45.654Z,55.90
2019-03-06T21:48:49.536Z,55.70
2019-03-06T21:58:56.388Z,56.10
2019-03-06T22:04:00.113Z,56.50
2019-03-06T22:09:10.430Z,56.90
2019-03-06T22:14:13.755Z,57.30
2019-03-06T22:19:17.899Z,57.50
2019-03-06T22:24:21.232Z,57.70
2019-03-06T22:29:24.889Z,57.80
2019-03-06T22:34:28.468Z,57.80
2019-03-06T22:39:31.799Z,58.70
2019-03-06T22:44:35.229Z,57.80
2019-03-06T22:49:38.560Z,57.90
2019-03-06T22:54:42.820Z,58.00
2019-03-06T22:59:46.249Z,58.20
2019-03-06T23:04:49.569Z,58.30
2019-03-06T23:09:52.909Z,58.30
2019-03-06T23:14:56.347Z,58.50
2019-03-06T23:20:00.361Z,58.60
2019-03-06T23:25:04.159Z,58.60
2019-03-06T23:30:09.026Z,58.50
2019-03-06T23:35:13.148Z,58.50
2019-03-06T23:40:18.941Z,58.60
2019-03-06T23:45:22.253Z,58.90
2019-03-06T23:50:25.584Z,58.30
2019-03-06T23:55:29.609Z,58.30
